Time;durP1;ratioP1;P1;durP2;ratioP2;P2;SDS_P1;SDS_P2;PMS_P1;PMS_P2;Temp;Humidity;BMP_temperature;BMP_pressure;BME280_temperature;BME280_humidity;BME280_pressure;Samples;Min_cycle;Max_cycle;Signal;HPM_P1;HPM_P2
2022/01/26 00:07:33;;;;;;;33.22;15.68;;;-4.90;70.50;;;;;;5158648;27;20095;-41
2022/01/26 00:09:59;;;;;;;35.90;16.25;;;-4.90;70.30;;;;;;5158593;27;20031;-37
2022/01/26 00:12:25;;;;;;;32.67;16.63;;;-4.90;70.40;;;;;;5158797;27;20272;-33
2022/01/26 00:14:50;;;;;;;33.47;15.65;;;-4.80;70.40;;;;;;5158528;27;20075;-34
2022/01/26 00:17:16;;;;;;;32.20;15.40;;;-4.80;70.60;;;;;;5158905;27;20033;-40
2022/01/26 00:22:54;;;;;;;33.03;15.70;;;-4.70;70.70;;;;;;5150068;27;20125;-36
2022/01/26 00:28:07;;;;;;;33.30;15.73;;;-4.70;70.50;;;;;;5158628;27;20033;-41
2022/01/26 00:39:05;;;;;;;29.92;15.30;;;-4.60;70.60;;;;;;5133979;27;20141;-34
2022/01/26 00:41:38;;;;;;;37.53;17.98;;;-4.50;70.60;;;;;;5157998;27;20042;-39
2022/01/26 00:44:05;;;;;;;35.47;16.45;;;-4.50;70.60;;;;;;5158620;27;20033;-33
2022/01/26 00:46:33;;;;;;;35.20;16.52;;;-4.50;70.60;;;;;;5157847;27;20102;-38
2022/01/26 00:48:59;;;;;;;35.95;17.38;;;-4.50;70.50;;;;;;5158371;27;20045;-41
2022/01/26 00:51:24;;;;;;;37.60;17.05;;;-4.40;70.50;;;;;;5157646;27;20111;-37
2022/01/26 00:54:02;;;;;;;37.03;16.80;;;-4.40;70.60;;;;;;5158464;27;20038;-41
2022/01/26 00:56:28;;;;;;;36.25;17.05;;;-4.40;70.60;;;;;;5157720;27;20023;-41
2022/01/26 00:58:54;;;;;;;36.70;17.48;;;-4.40;70.50;;;;;;5158154;27;20035;-41
2022/01/26 01:01:20;;;;;;;37.63;18.58;;;-4.40;70.50;;;;;;5157985;27;20023;-41
2022/01/26 01:03:47;;;;;;;39.03;17.65;;;-4.40;70.60;;;;;;5158178;27;20034;-33
2022/01/26 01:08:46;;;;;;;36.88;18.02;;;-4.40;70.60;;;;;;5157444;27;20057;-33
2022/01/26 01:11:12;;;;;;;33.83;17.13;;;-4.40;70.70;;;;;;5157782;27;20334;-40
2022/01/26 01:13:40;;;;;;;37.38;17.52;;;-4.40;70.70;;;;;;5158175;27;20073;-33
2022/01/26 01:16:09;;;;;;;39.78;18.35;;;-4.40;70.60;;;;;;5157802;27;20029;-41
2022/01/26 01:26:36;;;;;;;38.30;17.90;;;-4.30;70.90;;;;;;5157455;27;20026;-41
2022/01/26 01:34:06;;;;;;;39.45;18.20;;;-4.20;70.90;;;;;;5143020;27;20054;-33
2022/01/26 01:36:34;;;;;;;39.65;18.05;;;-4.20;71.00;;;;;;5157251;27;20023;-40
2022/01/26 01:39:00;;;;;;;44.78;19.65;;;-4.20;70.90;;;;;;5157920;27;20064;-40
2022/01/26 01:41:26;;;;;;;36.10;17.15;;;-4.20;71.00;;;;;;5157205;27;20171;-38
2022/01/26 01:43:51;;;;;;;36.33;17.02;;;-4.20;71.10;;;;;;5157846;27;20031;-40
2022/01/26 01:46:17;;;;;;;36.25;18.65;;;-4.20;71.00;;;;;;5157165;27;20035;-35
2022/01/26 01:48:43;;;;;;;33.15;16.98;;;-4.20;71.00;;;;;;5157511;27;20035;-34
2022/01/26 01:51:11;;;;;;;36.42;16.98;;;-4.20;70.80;;;;;;5157231;27;20086;-41
2022/01/26 01:53:40;;;;;;;32.53;16.85;;;-4.20;70.90;;;;;;5157654;27;20037;-41
2022/01/26 01:56:09;;;;;;;42.97;19.52;;;-4.10;70.90;;;;;;5157403;27;20023;-37
2022/01/26 01:58:35;;;;;;;31.38;16.83;;;-4.20;71.00;;;;;;5157594;27;20398;-33
2022/01/26 02:01:01;;;;;;;36.30;17.95;;;-4.10;71.00;;;;;;5157386;27;20026;-42
2022/01/26 02:03:27;;;;;;;34.45;17.35;;;-4.10;70.90;;;;;;5157576;27;20106;-32
2022/01/26 02:05:53;;;;;;;36.65;18.17;;;-4.10;71.00;;;;;;5157426;27;20058;-40
2022/01/26 02:08:19;;;;;;;39.53;19.05;;;-4.10;71.00;;;;;;5156964;27;20427;-41
2022/01/26 02:10:46;;;;;;;38.15;18.25;;;-4.10;71.10;;;;;;5156942;27;20038;-33
2022/01/26 02:13:28;;;;;;;45.47;20.10;;;-4.10;71.20;;;;;;5157534;27;20072;-40
2022/01/26 02:18:40;;;;;;;41.45;18.33;;;-4.10;71.40;;;;;;5158461;27;20058;-37
2022/01/26 02:56:57;;;;;;;46.72;21.13;;;-3.80;71.50;;;;;;5160552;27;20056;-33
2022/01/26 03:02:01;;;;;;;50.67;21.58;;;-3.80;71.70;;;;;;5160303;27;20019;-39
2022/01/26 03:09:39;;;;;;;41.92;18.65;;;-3.80;71.80;;;;;;5159467;27;20077;-41
2022/01/26 03:12:07;;;;;;;42.63;20.75;;;-3.80;71.90;;;;;;5160254;27;20438;-40
2022/01/26 03:17:42;;;;;;;43.67;20.70;;;-3.70;71.90;;;;;;5160197;27;20042;-33
2022/01/26 03:20:10;;;;;;;42.53;19.50;;;-3.70;71.80;;;;;;5158882;27;20299;-41
2022/01/26 03:28:38;;;;;;;36.30;18.90;;;-3.60;71.90;;;;;;5083866;28;20123;-33
2022/01/26 03:36:30;;;;;;;52.40;21.77;;;-3.60;72.00;;;;;;5159521;27;20057;-39
2022/01/26 03:39:08;;;;;;;58.67;23.52;;;-3.60;72.10;;;;;;5159399;27;20091;-36
2022/01/26 03:41:45;;;;;;;55.50;24.02;;;-3.50;72.10;;;;;;5159307;27;20345;-41
2022/01/26 03:44:11;;;;;;;56.75;23.17;;;-3.50;72.00;;;;;;5159639;27;20367;-40
2022/01/26 03:46:38;;;;;;;48.03;22.52;;;-3.50;72.10;;;;;;5159096;27;20081;-41
2022/01/26 03:49:06;;;;;;;45.83;20.42;;;-3.50;72.10;;;;;;5158976;27;20053;-41
2022/01/26 03:51:32;;;;;;;50.47;20.52;;;-3.50;72.00;;;;;;5158907;27;20023;-41
2022/01/26 03:53:58;;;;;;;43.85;20.77;;;-3.50;72.00;;;;;;5158936;27;20048;-32
2022/01/26 03:56:23;;;;;;;42.00;19.77;;;-3.50;72.00;;;;;;5158704;27;20034;-42
2022/01/26 03:58:49;;;;;;;41.95;20.23;;;-3.50;72.20;;;;;;5159226;27;20074;-33
2022/01/26 04:01:15;;;;;;;39.97;19.20;;;-3.60;72.20;;;;;;5158796;27;20022;-32
2022/01/26 04:03:40;;;;;;;40.97;20.30;;;-3.60;72.30;;;;;;5158688;27;20042;-35
2022/01/26 04:06:06;;;;;;;43.20;19.55;;;-3.60;72.40;;;;;;5158671;27;20034;-33
2022/01/26 04:08:33;;;;;;;46.67;21.77;;;-3.60;72.40;;;;;;5158589;27;20134;-34
2022/01/26 04:13:34;;;;;;;46.50;21.90;;;-3.60;72.60;;;;;;5159035;27;20433;-40
2022/01/26 04:16:00;;;;;;;50.33;23.52;;;-3.60;72.60;;;;;;5158550;27;20030;-40
2022/01/26 04:18:33;;;;;;;45.47;20.95;;;-3.60;72.60;;;;;;5158820;27;20035;-33
2022/01/26 04:21:03;;;;;;;41.10;20.23;;;-3.50;72.80;;;;;;5158353;27;20030;-33
2022/01/26 04:25:55;;;;;;;52.92;24.38;;;-3.40;72.90;;;;;;5158462;27;20079;-34
2022/01/26 04:28:27;;;;;;;51.60;24.85;;;-3.40;72.90;;;;;;5158526;27;20105;-39
2022/01/26 04:30:53;;;;;;;50.88;23.63;;;-3.40;72.90;;;;;;5158210;27;20023;-33
2022/01/26 04:33:19;;;;;;;49.00;22.27;;;-3.40;72.90;;;;;;5158306;27;20175;-38
2022/01/26 04:35:47;;;;;;;55.13;24.60;;;-3.30;72.90;;;;;;5158100;27;20019;-41
2022/01/26 04:40:50;;;;;;;52.78;24.85;;;-3.20;72.80;;;;;;5157497;27;20071;-33
2022/01/26 04:43:20;;;;;;;62.50;26.65;;;-3.10;72.90;;;;;;5158402;27;20031;-41
2022/01/26 04:45:46;;;;;;;58.42;26.10;;;-3.10;72.90;;;;;;5158005;27;20037;-32
2022/01/26 04:48:12;;;;;;;56.92;26.55;;;-3.00;72.80;;;;;;5158107;27;20031;-41
2022/01/26 04:50:38;;;;;;;52.75;24.27;;;-3.00;72.80;;;;;;5157827;27;20022;-33
2022/01/26 04:53:03;;;;;;;66.28;26.80;;;-3.00;72.50;;;;;;5158286;27;20038;-38
2022/01/26 04:55:29;;;;;;;58.60;24.05;;;-2.90;72.50;;;;;;5157994;27;20056;-42
2022/01/26 04:57:55;;;;;;;67.97;28.70;;;-2.90;72.40;;;;;;5157935;27;20072;-33
2022/01/26 05:00:20;;;;;;;70.47;28.58;;;-2.90;72.40;;;;;;5157526;27;20037;-32
2022/01/26 05:02:46;;;;;;;70.22;30.13;;;-2.90;72.40;;;;;;5157886;27;20025;-41
2022/01/26 05:05:12;;;;;;;73.15;27.98;;;-2.80;72.40;;;;;;5157761;27;20027;-32
2022/01/26 05:07:38;;;;;;;67.35;26.45;;;-2.80;72.30;;;;;;5157535;27;20058;-33
2022/01/26 05:10:04;;;;;;;71.18;27.73;;;-2.80;72.20;;;;;;5157609;27;20318;-39
2022/01/26 05:12:32;;;;;;;71.07;28.55;;;-2.80;72.10;;;;;;5157702;27;20047;-33
2022/01/26 05:14:58;;;;;;;58.45;26.48;;;-2.80;72.10;;;;;;5157518;27;20334;-32
2022/01/26 05:17:24;;;;;;;68.38;27.90;;;-2.80;72.20;;;;;;5157751;27;20122;-33
2022/01/26 05:19:55;;;;;;;57.33;26.17;;;-2.80;72.50;;;;;;5157216;27;20034;-34
2022/01/26 05:22:20;;;;;;;54.47;25.48;;;-2.80;72.30;;;;;;5157553;27;20427;-41
2022/01/26 05:24:47;;;;;;;57.13;27.48;;;-2.70;72.40;;;;;;5157208;27;20114;-40
2022/01/26 05:27:13;;;;;;;54.63;24.73;;;-2.70;72.50;;;;;;5157671;27;20056;-40
2022/01/26 05:29:39;;;;;;;58.72;27.77;;;-2.70;72.40;;;;;;5156957;27;20050;-33
2022/01/26 05:32:05;;;;;;;50.40;23.83;;;-2.60;72.40;;;;;;5157452;27;20065;-40
2022/01/26 05:34:31;;;;;;;54.70;26.48;;;-2.60;72.40;;;;;;5157237;27;20402;-41
2022/01/26 05:36:56;;;;;;;50.35;24.45;;;-2.60;72.40;;;;;;5157531;27;20106;-39
2022/01/26 05:39:22;;;;;;;47.50;24.63;;;-2.60;72.10;;;;;;5157007;27;20033;-40
2022/01/26 05:41:48;;;;;;;53.22;24.60;;;-2.60;72.00;;;;;;5157329;27;20019;-41
2022/01/26 05:44:14;;;;;;;51.28;25.65;;;-2.60;72.00;;;;;;5157078;27;20030;-41
2022/01/26 05:46:46;;;;;;;46.83;23.80;;;-2.50;72.00;;;;;;5157338;27;20338;-41
2022/01/26 05:49:13;;;;;;;53.90;25.50;;;-2.50;72.10;;;;;;5157416;27;20312;-37
2022/01/26 05:51:39;;;;;;;52.00;25.95;;;-2.50;72.10;;;;;;5157105;27;20528;-41
2022/01/26 05:54:07;;;;;;;57.10;26.30;;;-2.40;72.20;;;;;;5161707;27;20318;-34
2022/01/26 05:56:33;;;;;;;61.03;27.65;;;-2.40;72.40;;;;;;5161136;27;20464;-41
2022/01/26 05:58:59;;;;;;;66.53;30.25;;;-2.40;72.40;;;;;;5161415;27;20041;-39
2022/01/26 06:01:25;;;;;;;62.25;30.48;;;-2.30;72.30;;;;;;5161032;27;20022;-41
2022/01/26 06:03:51;;;;;;;61.67;30.15;;;-2.30;72.10;;;;;;5161219;27;20315;-34
2022/01/26 06:06:17;;;;;;;58.22;28.42;;;-2.30;72.20;;;;;;5160534;27;20432;-40
2022/01/26 06:08:43;;;;;;;72.90;30.85;;;-2.30;72.30;;;;;;5160563;27;20054;-33
2022/01/26 06:11:08;;;;;;;71.32;32.45;;;-2.20;72.40;;;;;;5160686;27;20414;-34
2022/01/26 06:13:34;;;;;;;74.93;30.73;;;-2.20;72.40;;;;;;5160846;27;20027;-32
2022/01/26 06:16:00;;;;;;;63.80;28.52;;;-2.10;72.50;;;;;;5160026;27;20027;-36
2022/01/26 06:18:26;;;;;;;69.60;32.50;;;-2.10;72.50;;;;;;5160578;27;20252;-41
2022/01/26 06:20:51;;;;;;;80.80;33.33;;;-2.10;73.00;;;;;;5160428;27;20031;-40
2022/01/26 06:23:19;;;;;;;75.85;31.77;;;-2.00;72.30;;;;;;5160776;27;20029;-37
2022/01/26 06:25:45;;;;;;;71.75;31.27;;;-2.00;72.20;;;;;;5160628;27;20045;-40
2022/01/26 06:28:13;;;;;;;86.80;39.05;;;-1.90;72.30;;;;;;5160575;27;20026;-40
2022/01/26 06:30:43;;;;;;;83.05;35.88;;;-1.90;72.30;;;;;;5160292;27;20054;-39
2022/01/26 06:33:09;;;;;;;80.95;36.65;;;-1.80;72.40;;;;;;5160646;27;20030;-40
2022/01/26 06:35:35;;;;;;;83.85;38.42;;;-1.80;72.30;;;;;;5160201;27;20066;-39
2022/01/26 06:38:01;;;;;;;80.32;35.08;;;-1.80;72.30;;;;;;5160135;27;20035;-39
2022/01/26 06:40:27;;;;;;;100.20;40.92;;;-1.70;72.30;;;;;;5159896;27;20031;-41
2022/01/26 06:45:25;;;;;;;106.43;47.00;;;-1.70;72.30;;;;;;5160171;27;20113;-40
2022/01/26 06:50:36;;;;;;;73.45;36.22;;;-1.50;72.30;;;;;;5160003;27;20063;-39
2022/01/26 06:53:02;;;;;;;73.25;35.78;;;-1.50;72.30;;;;;;5160170;27;20027;-40
2022/01/26 06:55:28;;;;;;;73.35;36.92;;;-1.50;72.20;;;;;;5159507;27;20087;-33
2022/01/26 06:57:54;;;;;;;64.43;31.63;;;-1.40;72.30;;;;;;5160062;27;20463;-40
2022/01/26 07:00:19;;;;;;;74.82;39.35;;;-1.40;72.20;;;;;;5159786;27;20110;-32
2022/01/26 07:02:45;;;;;;;79.05;38.42;;;-1.30;72.20;;;;;;5159721;27;20401;-33
2022/01/26 07:05:12;;;;;;;77.20;36.58;;;-1.30;72.20;;;;;;5158850;27;20023;-32
2022/01/26 07:07:40;;;;;;;77.00;35.47;;;-1.30;72.10;;;;;;5159615;27;20042;-39
2022/01/26 07:10:07;;;;;;;63.72;32.42;;;-1.20;72.20;;;;;;5159235;27;20028;-40
2022/01/26 07:12:33;;;;;;;78.80;36.08;;;-1.20;72.20;;;;;;5159508;27;20038;-34
2022/01/26 07:23:05;;;;;;;71.28;34.72;;;-0.90;72.10;;;;;;5159498;27;20034;-40
2022/01/26 07:25:31;;;;;;;64.22;31.98;;;-0.80;72.00;;;;;;5159207;27;20019;-43
2022/01/26 07:27:58;;;;;;;65.32;34.28;;;-0.70;72.00;;;;;;5159304;27;20038;-41
2022/01/26 07:30:24;;;;;;;79.20;38.20;;;-0.70;71.90;;;;;;5158929;27;20364;-35
2022/01/26 07:32:50;;;;;;;72.30;34.55;;;-0.60;72.00;;;;;;5159206;27;20079;-41
2022/01/26 07:35:15;;;;;;;69.80;34.45;;;-0.60;71.90;;;;;;5158970;27;20022;-38
2022/01/26 07:37:43;;;;;;;68.50;32.28;;;-0.50;71.80;;;;;;5159271;27;20037;-33
2022/01/26 07:40:10;;;;;;;70.00;32.70;;;-0.50;71.90;;;;;;5159083;27;20026;-32
2022/01/26 07:42:37;;;;;;;64.38;32.45;;;-0.40;71.80;;;;;;5159080;27;20026;-41
2022/01/26 07:45:05;;;;;;;62.63;30.92;;;-0.40;71.90;;;;;;5159021;27;20105;-37
2022/01/26 07:47:32;;;;;;;62.13;30.50;;;-0.30;71.90;;;;;;5142053;27;20102;-38
2022/01/26 07:50:02;;;;;;;66.57;31.33;;;-0.30;72.00;;;;;;5137454;27;20031;-34
2022/01/26 07:52:33;;;;;;;62.30;29.45;;;-0.20;72.00;;;;;;5137928;27;20027;-39
2022/01/26 07:54:58;;;;;;;79.65;35.47;;;-0.10;71.80;;;;;;5137908;27;20063;-32
2022/01/26 07:57:26;;;;;;;69.85;31.67;;;-0.10;71.70;;;;;;5137412;27;20472;-41
2022/01/26 07:59:52;;;;;;;60.97;29.90;;;-0.10;71.60;;;;;;5138025;27;20107;-41
2022/01/26 08:02:18;;;;;;;61.08;27.83;;;0.00;71.60;;;;;;5137878;27;20328;-34
2022/01/26 08:04:43;;;;;;;68.45;31.75;;;0.00;71.70;;;;;;5137298;27;20092;-35
2022/01/26 08:07:09;;;;;;;58.22;29.25;;;0.00;71.70;;;;;;5137493;27;20027;-37
2022/01/26 08:09:35;;;;;;;64.65;30.52;;;0.00;71.70;;;;;;5136893;27;20142;-33
2022/01/26 08:12:01;;;;;;;63.25;30.13;;;0.00;71.70;;;;;;5137207;27;20027;-32
2022/01/26 08:14:27;;;;;;;71.50;33.38;;;0.00;71.70;;;;;;5137239;27;20134;-33
2022/01/26 08:16:52;;;;;;;80.13;35.85;;;0.00;71.90;;;;;;5136510;27;20027;-33
2022/01/26 08:19:19;;;;;;;69.10;34.17;;;0.00;71.80;;;;;;5137487;27;20026;-33
2022/01/26 08:21:44;;;;;;;64.50;31.30;;;0.00;71.90;;;;;;5137597;27;20099;-32
2022/01/26 08:24:14;;;;;;;73.18;33.53;;;0.00;71.80;;;;;;5137532;27;20019;-35
2022/01/26 08:26:46;;;;;;;65.97;31.77;;;0.00;71.70;;;;;;5137197;27;20027;-32
2022/01/26 08:29:25;;;;;;;67.57;31.30;;;0.00;71.80;;;;;;5137108;27;20418;-39
2022/01/26 08:31:50;;;;;;;75.15;34.35;;;0.00;71.70;;;;;;5137198;27;20397;-40
2022/01/26 08:34:17;;;;;;;75.70;33.40;;;0.00;71.80;;;;;;5137059;27;20061;-34
2022/01/26 08:36:43;;;;;;;75.57;35.38;;;0.00;71.70;;;;;;5136602;27;20039;-33
2022/01/26 08:39:09;;;;;;;69.53;34.90;;;0.00;71.70;;;;;;5134968;27;20046;-34
2022/01/26 08:41:35;;;;;;;75.53;36.00;;;0.00;71.90;;;;;;5136797;27;20015;-34
2022/01/26 08:44:01;;;;;;;65.60;33.17;;;0.10;72.00;;;;;;5137206;27;20372;-38
2022/01/26 08:46:27;;;;;;;86.03;38.28;;;0.10;71.90;;;;;;5136621;27;20114;-40
2022/01/26 08:48:53;;;;;;;84.50;40.92;;;0.10;71.90;;;;;;5137039;27;20106;-40
2022/01/26 08:51:19;;;;;;;82.72;39.38;;;0.10;71.80;;;;;;5136417;27;20023;-39
2022/01/26 08:53:45;;;;;;;75.85;36.08;;;0.20;71.70;;;;;;5136598;27;20023;-32
2022/01/26 08:56:12;;;;;;;72.35;35.97;;;0.20;71.60;;;;;;5136636;27;20034;-40
2022/01/26 08:58:38;;;;;;;79.68;37.33;;;0.20;71.60;;;;;;5137020;27;20045;-40
2022/01/26 09:01:04;;;;;;;79.38;37.15;;;0.20;72.20;;;;;;5136666;27;20118;-41
2022/01/26 09:03:34;;;;;;;82.28;38.65;;;0.20;71.70;;;;;;5136835;27;20081;-39
2022/01/26 09:06:00;;;;;;;67.70;32.97;;;0.30;71.80;;;;;;5136291;27;20117;-39
2022/01/26 09:08:26;;;;;;;84.97;37.35;;;0.30;71.30;;;;;;5136098;27;20082;-39
2022/01/26 09:10:56;;;;;;;71.85;34.83;;;0.40;71.20;;;;;;5136508;27;20330;-33
2022/01/26 09:13:22;;;;;;;71.90;33.67;;;0.40;71.20;;;;;;5136679;27;20039;-33
2022/01/26 09:15:48;;;;;;;81.32;40.78;;;0.40;71.00;;;;;;5136341;27;20467;-37
2022/01/26 09:18:19;;;;;;;75.53;35.28;;;0.40;71.00;;;;;;5136704;28;20408;-38
2022/01/26 09:20:45;;;;;;;73.70;35.35;;;0.40;71.00;;;;;;5136367;28;20029;-33
2022/01/26 09:23:11;;;;;;;83.85;38.65;;;0.40;71.10;;;;;;5136433;28;20110;-32
2022/01/26 09:25:36;;;;;;;80.13;39.47;;;0.40;71.30;;;;;;5136217;28;20070;-39
2022/01/26 09:28:02;;;;;;;92.68;43.05;;;0.40;71.50;;;;;;5138854;27;20407;-39
2022/01/26 09:30:28;;;;;;;80.50;37.58;;;0.40;71.60;;;;;;5140071;27;20023;-40
2022/01/26 09:32:54;;;;;;;72.20;34.58;;;0.50;71.60;;;;;;5140744;27;20035;-43
2022/01/26 09:35:19;;;;;;;74.93;36.20;;;0.50;71.60;;;;;;5140302;27;20462;-44
2022/01/26 09:37:45;;;;;;;84.43;38.78;;;0.50;71.40;;;;;;5140806;27;20036;-42
2022/01/26 09:40:11;;;;;;;81.85;36.60;;;0.50;71.60;;;;;;5140396;27;20364;-35
2022/01/26 09:42:37;;;;;;;72.28;35.30;;;0.50;71.50;;;;;;5140463;27;20031;-37
2022/01/26 09:45:08;;;;;;;74.18;34.53;;;0.50;71.10;;;;;;5140133;27;20033;-41
2022/01/26 09:47:33;;;;;;;74.95;35.10;;;0.50;71.20;;;;;;5140761;27;20311;-42
2022/01/26 09:49:59;;;;;;;76.78;35.65;;;0.50;71.10;;;;;;5140248;27;20030;-42
2022/01/26 09:52:37;;;;;;;82.28;36.17;;;0.60;71.20;;;;;;5137100;27;20438;-41
2022/01/26 09:55:05;;;;;;;76.13;35.42;;;0.60;71.00;;;;;;5139615;27;20071;-39
2022/01/26 09:57:31;;;;;;;445.85;280.45;;;0.50;70.80;;;;;;5138017;27;20066;-34
2022/01/26 09:59:58;;;;;;;87.85;40.90;;;0.50;70.90;;;;;;5122672;27;20035;-36
2022/01/26 10:02:29;;;;;;;79.47;39.72;;;0.50;70.90;;;;;;5120128;27;20027;-34
2022/01/26 10:05:10;;;;;;;97.25;45.63;;;0.50;71.00;;;;;;5140041;27;20090;-39
2022/01/26 10:07:52;;;;;;;75.13;36.05;;;0.50;71.00;;;;;;5119301;28;20081;-34
2022/01/26 10:16:03;;;;;;;74.90;35.10;;;0.60;71.30;;;;;;5119583;27;20092;-34
2022/01/26 10:18:33;;;;;;;74.60;35.00;;;0.60;71.00;;;;;;5119307;28;20081;-34
2022/01/26 10:21:01;;;;;;;77.28;36.53;;;0.60;70.90;;;;;;5118828;28;20111;-34
2022/01/26 10:23:30;;;;;;;102.07;40.78;;;0.60;70.70;;;;;;5119075;28;20395;-35
2022/01/26 10:26:01;;;;;;;85.30;38.65;;;0.60;70.70;;;;;;5118981;28;20019;-40
2022/01/26 10:28:27;;;;;;;87.18;37.85;;;0.60;70.80;;;;;;5134520;27;20080;-34
2022/01/26 10:30:52;;;;;;;79.10;37.92;;;0.70;70.80;;;;;;5137727;27;20122;-40
2022/01/26 10:33:18;;;;;;;601.20;309.50;;;0.60;70.80;;;;;;5138801;27;20106;-40
2022/01/26 10:35:45;;;;;;;92.70;43.30;;;0.70;71.00;;;;;;5138787;27;20084;-45
2022/01/26 10:38:11;;;;;;;93.70;44.17;;;0.70;71.20;;;;;;5139289;27;20049;-34
2022/01/26 10:40:39;;;;;;;131.20;58.50;;;0.70;71.10;;;;;;5138039;27;20027;-40
2022/01/26 10:43:11;;;;;;;91.43;41.28;;;0.80;71.20;;;;;;5139015;27;20057;-40
2022/01/26 10:45:52;;;;;;;99.45;45.08;;;0.80;71.10;;;;;;5139039;27;20031;-35
2022/01/26 10:48:29;;;;;;;86.40;39.40;;;0.80;70.90;;;;;;5139148;27;20032;-41
2022/01/26 10:53:46;;;;;;;95.32;45.13;;;0.90;70.60;;;;;;5139531;27;20078;-34
2022/01/26 10:56:11;;;;;;;85.93;40.28;;;0.90;70.60;;;;;;5138681;27;20031;-42
2022/01/26 10:58:37;;;;;;;85.47;40.53;;;0.90;70.50;;;;;;5138999;27;20070;-42
2022/01/26 11:01:04;;;;;;;451.67;280.90;;;0.90;70.50;;;;;;5138645;27;20042;-41
2022/01/26 11:03:31;;;;;;;85.47;40.58;;;0.90;70.40;;;;;;5138895;27;20434;-41
2022/01/26 11:05:57;;;;;;;92.90;39.63;;;0.90;70.40;;;;;;5138983;27;20037;-42
2022/01/26 11:08:24;;;;;;;77.13;33.92;;;0.90;70.50;;;;;;5138535;27;20055;-40
2022/01/26 11:10:50;;;;;;;71.55;34.25;;;0.90;70.40;;;;;;5138518;27;20038;-41
2022/01/26 11:13:28;;;;;;;75.28;34.10;;;0.90;70.20;;;;;;5139062;27;20035;-33
2022/01/26 11:16:14;;;;;;;78.85;34.25;;;0.90;70.10;;;;;;5138609;27;20023;-38
2022/01/26 11:18:52;;;;;;;69.13;31.17;;;0.90;69.90;;;;;;5138258;27;20047;-42
2022/01/26 11:21:48;;;;;;;75.47;31.55;;;0.80;69.70;;;;;;5138328;27;20060;-34
2022/01/26 11:24:19;;;;;;;79.47;34.92;;;0.80;69.70;;;;;;5121035;27;20039;-34
2022/01/26 11:26:49;;;;;;;71.25;31.88;;;0.70;69.80;;;;;;5137895;27;20027;-41
2022/01/26 11:29:24;;;;;;;80.33;35.07;;;0.70;70.00;;;;;;5136872;27;20023;-35
2022/01/26 11:32:31;;;;;;;67.90;32.22;;;0.70;70.20;;;;;;5138387;27;20247;-40
2022/01/26 11:34:58;;;;;;;85.35;38.13;;;0.70;70.20;;;;;;5137826;27;20035;-34
2022/01/26 11:37:39;;;;;;;67.78;32.65;;;0.60;70.20;;;;;;5138207;27;20047;-35
2022/01/26 11:46:11;;;;;;;66.05;30.80;;;0.50;70.40;;;;;;5138208;27;20033;-42
2022/01/26 11:48:38;;;;;;;88.07;42.40;;;0.40;70.20;;;;;;5138049;27;20163;-34
2022/01/26 11:51:05;;;;;;;112.18;64.97;;;0.40;70.30;;;;;;5137662;27;20489;-34
2022/01/26 11:53:31;;;;;;;64.93;30.98;;;0.30;70.40;;;;;;5137905;27;20047;-35
2022/01/26 11:56:20;;;;;;;61.55;29.58;;;0.40;70.80;;;;;;5137459;27;20437;-41
2022/01/26 11:58:47;;;;;;;61.60;29.67;;;0.40;70.80;;;;;;5137901;27;20077;-34
2022/01/26 12:04:09;;;;;;;64.05;29.52;;;0.50;71.00;;;;;;5137685;27;20034;-34
2022/01/26 12:06:41;;;;;;;70.30;34.33;;;0.60;71.00;;;;;;5126060;27;20336;-36
2022/01/26 12:09:08;;;;;;;60.17;29.15;;;0.60;70.70;;;;;;5116569;28;20439;-34
2022/01/26 12:11:35;;;;;;;65.95;33.25;;;0.70;70.80;;;;;;5116504;28;20434;-34
2022/01/26 12:14:03;;;;;;;52.90;24.85;;;0.80;70.50;;;;;;5117138;28;20393;-34
2022/01/26 12:16:45;;;;;;;52.00;25.50;;;0.90;70.10;;;;;;5116389;28;20020;-34
2022/01/26 12:35:37;;;;;;;;;;;1.00;68.20;;;;;;5117017;28;20062;-33
2022/01/26 12:38:10;;;;;;;55.40;23.60;;;1.00;68.20;;;;;;5116320;28;19947;-34
2022/01/26 12:43:45;;;;;;;89.47;42.75;;;0.90;68.10;;;;;;5116659;28;20085;-33
2022/01/26 12:46:29;;;;;;;167.52;99.10;;;0.90;68.10;;;;;;5116006;28;20016;-34
2022/01/26 12:48:59;;;;;;;62.40;32.40;;;0.80;68.20;;;;;;5116533;28;20036;-39
2022/01/26 12:51:26;;;;;;;53.33;26.50;;;0.80;68.20;;;;;;5116018;28;20016;-31
2022/01/26 12:53:58;;;;;;;49.67;24.05;;;0.80;68.30;;;;;;5116553;28;20323;-32
2022/01/26 12:56:34;;;;;;;62.90;27.70;;;0.80;68.20;;;;;;5116012;28;20043;-38
2022/01/26 12:59:04;;;;;;;53.20;25.90;;;0.80;68.20;;;;;;5115970;28;20038;-38
2022/01/26 13:01:30;;;;;;;61.22;27.42;;;0.80;68.30;;;;;;5115794;28;20027;-38
2022/01/26 13:03:59;;;;;;;54.17;25.00;;;0.80;68.30;;;;;;5116307;28;20292;-35
2022/01/26 13:06:29;;;;;;;50.90;26.05;;;0.80;68.20;;;;;;5115850;28;20024;-34
2022/01/26 13:08:57;;;;;;;59.70;29.65;;;0.80;68.50;;;;;;5115723;28;20131;-36
2022/01/26 13:11:28;;;;;;;51.75;25.33;;;0.80;68.40;;;;;;5115527;28;20023;-33
2022/01/26 13:14:22;;;;;;;53.63;25.90;;;0.80;68.40;;;;;;5116179;28;20103;-31
2022/01/26 13:16:57;;;;;;;145.77;74.82;;;0.90;68.40;;;;;;5115899;28;20020;-35
2022/01/26 13:24:35;;;;;;;59.38;29.15;;;0.90;68.60;;;;;;5115371;28;20065;-38
2022/01/26 13:27:19;;;;;;;51.47;26.40;;;0.90;68.60;;;;;;5116089;28;20078;-34
2022/01/26 13:35:04;;;;;;;53.72;25.55;;;1.00;68.80;;;;;;5115507;28;20035;-34
2022/01/26 13:40:44;;;;;;;58.08;28.20;;;1.00;68.50;;;;;;5115739;28;20315;-40
2022/01/26 13:56:17;;;;;;;59.75;27.80;;;0.90;68.70;;;;;;5115101;28;20076;-43
2022/01/26 13:58:57;;;;;;;52.75;25.10;;;0.90;68.50;;;;;;5115479;28;20077;-38
2022/01/26 14:01:22;;;;;;;166.20;85.38;;;0.90;69.10;;;;;;5115035;28;20043;-37
2022/01/26 14:03:53;;;;;;;59.97;27.55;;;0.90;68.60;;;;;;5115170;28;20043;-34
2022/01/26 14:06:18;;;;;;;60.28;30.30;;;0.90;68.60;;;;;;5115376;28;20031;-35
2022/01/26 14:08:44;;;;;;;75.63;42.10;;;0.80;68.70;;;;;;5114756;28;20468;-34
2022/01/26 14:11:10;;;;;;;72.63;35.95;;;0.80;68.70;;;;;;5115178;28;20027;-36
2022/01/26 14:13:37;;;;;;;58.90;28.30;;;0.80;68.80;;;;;;5116918;28;20032;-34
2022/01/26 14:16:05;;;;;;;70.55;35.85;;;0.80;68.90;;;;;;5118955;28;20245;-34
2022/01/26 14:26:43;;;;;;;56.80;26.52;;;0.70;69.00;;;;;;5119203;28;20020;-35
2022/01/26 14:29:38;;;;;;;60.97;28.15;;;0.70;69.10;;;;;;5119013;28;20557;-35
2022/01/26 14:32:20;;;;;;;51.00;24.38;;;0.70;69.20;;;;;;5118314;28;20035;-34
2022/01/26 14:54:15;;;;;;;57.65;29.90;;;0.70;69.30;;;;;;5119030;28;20377;-39
2022/01/26 15:34:10;;;;;;;51.97;25.55;;;0.70;69.70;;;;;;5117699;28;20447;-31
2022/01/26 15:44:24;;;;;;;83.00;38.22;;;0.80;69.70;;;;;;5117716;28;20110;-38
2022/01/26 15:52:11;;;;;;;61.17;27.55;;;0.80;70.00;;;;;;5117967;28;20027;-32
2022/01/26 16:12:39;;;;;;;54.03;25.52;;;0.90;69.90;;;;;;5117498;28;20054;-31
2022/01/26 16:17:01;;;;;;;47.22;22.40;;;0.90;69.70;;;;;;5117073;28;20081;-31
2022/01/26 16:20:00;;;;;;;50.05;23.42;;;0.90;69.60;;;;;;5116363;28;20040;-40
2022/01/26 16:35:07;;;;;;;67.40;27.33;;;0.80;69.20;;;;;;5117160;28;20311;-40
2022/01/26 16:39:24;;;;;;;176.60;60.45;;;0.70;69.60;;;;;;5033584;28;20033;-40
2022/01/26 18:06:50;;;;;;;67.93;26.88;;;0.50;70.40;;;;;;5119964;28;20104;-43
2022/01/26 18:33:28;;;;;;;41.50;19.23;;;0.40;70.30;;;;;;5119542;28;20050;-34
2022/01/26 18:51:37;;;;;;;52.28;23.15;;;0.50;69.90;;;;;;5119093;28;20066;-43
2022/01/26 18:54:05;;;;;;;48.83;22.55;;;0.50;69.80;;;;;;5118963;28;20449;-43
2022/01/26 18:56:31;;;;;;;40.80;20.17;;;0.50;69.70;;;;;;5118856;28;20309;-34
2022/01/26 18:58:56;;;;;;;58.85;27.40;;;0.50;69.80;;;;;;5119300;28;20038;-34
2022/01/26 19:01:23;;;;;;;47.50;23.77;;;0.50;69.80;;;;;;5117611;28;20031;-43
2022/01/26 19:03:48;;;;;;;45.35;21.83;;;0.50;69.60;;;;;;5119022;28;20066;-36
2022/01/26 19:06:14;;;;;;;51.28;23.48;;;0.50;69.50;;;;;;5118561;28;20441;-43
2022/01/26 19:08:41;;;;;;;54.38;24.55;;;0.50;70.10;;;;;;5118364;28;20086;-43
2022/01/26 19:11:09;;;;;;;49.15;24.23;;;0.50;69.60;;;;;;5118191;28;20120;-34
2022/01/26 19:13:35;;;;;;;78.47;31.15;;;0.50;69.50;;;;;;5118901;28;20059;-35
2022/01/26 19:16:07;;;;;;;47.40;22.15;;;0.60;69.60;;;;;;5118283;28;20442;-35
2022/01/26 19:18:50;;;;;;;50.92;24.23;;;0.50;69.40;;;;;;5118965;28;20360;-35
2022/01/26 19:21:36;;;;;;;73.40;31.27;;;0.50;69.30;;;;;;5118467;28;20024;-43
2022/01/26 19:26:56;;;;;;;61.83;27.17;;;0.50;69.20;;;;;;5112819;28;20032;-43
2022/01/26 19:32:46;;;;;;;51.38;22.63;;;0.50;69.20;;;;;;5107550;28;20134;-43
2022/01/26 19:46:25;;;;;;;57.05;27.10;;;0.40;69.40;;;;;;5118119;28;20074;-34
2022/01/26 19:51:42;;;;;;;49.53;23.73;;;0.50;69.40;;;;;;5117609;28;20096;-35
2022/01/26 19:54:08;;;;;;;41.13;19.27;;;0.40;69.30;;;;;;5118166;28;20373;-36
2022/01/26 19:56:34;;;;;;;52.38;20.90;;;0.40;69.30;;;;;;5117815;28;20031;-37